Home > Products > Valid Products > MTR

000
SAUS46 KMTR 280457
MTRMHS
METAR KMHS 280456Z AUTO VRB06G17KT 10SM CLR 13/00 A3005 RMK AO2
SLP175 T01280000





000
SAUS46 KMTR 280156
MTRMHS
METAR KMHS 280156Z AUTO 31007KT 270V350 10SM CLR 18/M01 A3000 RMK
AO2 SLP162 T01781006





000
SAUS46 KMTR 280056
MTRMHS
METAR KMHS 280056Z AUTO VRB06KT 10SM CLR 19/01 A2999 RMK AO2 SLP160
T01890006





000
SAUS46 KMTR 272257
MTRMHS
METAR KMHS 272256Z AUTO VRB05KT 10SM CLR 22/01 A3001 RMK AO2 SLP162
T02170011





000
SAUS46 KMTR 271856
MTRMHS
METAR KMHS 271856Z AUTO 32009KT 280V360 10SM CLR 17/M01 A3008 RMK
AO2 SLP188 T01721006





000
SAUS46 KMTR 271757
MTRMHS
METAR KMHS 271756Z AUTO 32007KT 240V080 10SM CLR 16/01 A3010 RMK AO2
SLP191 T01610011 10161 20067 58005





000
SAUS46 KMTR 271656
MTRMHS
METAR KMHS 271656Z AUTO VRB04KT 10SM CLR 16/03 A3010 RMK AO2 SLP194
T01560028





000
SAUS46 KMTR 270656
MTRMHS
METAR KMHS 270656Z AUTO VRB05KT 10SM CLR 12/03 A3010 RMK AO2 SLP189
T01220028





000
SAUS46 KMTR 270456
MTRMHS
METAR KMHS 270456Z AUTO 32005KT 10SM CLR 14/03 A3009 RMK AO2 SLP190
T01390028





000
SAUS46 KMTR 270356
MTRMHS
METAR KMHS 270356Z AUTO VRB06KT 10SM CLR 16/02 A3007 RMK AO2 SLP182
T01560017





000
SAUS46 KMTR 270156
MTRMHS
METAR KMHS 270156Z AUTO VRB06KT 10SM CLR 20/02 A3004 RMK AO2 SLP174
T02000022





000
SAUS46 KMTR 270056
MTRMHS
METAR KMHS 270056Z AUTO 00000KT 10SM CLR 22/03 A3004 RMK AO2 SLP175
T02170028





000
SAUS46 KMTR 262356
MTRMHS
METAR KMHS 262356Z AUTO 30007KT 10SM CLR 22/02 A3005 RMK AO2 SLP175
T02220022 10239 20178 58012





000
SAUS46 KMTR 251257
MTRMHS
METAR KMHS 251256Z AUTO 00000KT 10SM BKN002 OVC037 08/06 A3007 RMK
AO2 SLP191 T00780061





    US Dept of Commerce
    National Oceanic and Atmospheric Administration
    National Weather Service
    1325 East West Highway
    Silver Spring, MD 20910
    Page Author: NWS Internet Services Team
Disclaimer
Information Quality
Credits
Glossary
Privacy Policy
Freedom of Information Act (FOIA)
About Us
Career Opportunities